sensor_id;sensor_type;location;lat;lon;timestamp;P1;durP1;ratioP1;P2;durP2;ratioP2
49458;SDS011;35354;51.296;16.924;2023-03-13T00:01:02;104.05;;;44.20;;
49458;SDS011;35354;51.296;16.924;2023-03-13T00:03:34;82.72;;;38.22;;
49458;SDS011;35354;51.296;16.924;2023-03-13T00:05:59;56.45;;;28.90;;
49458;SDS011;35354;51.296;16.924;2023-03-13T00:08:25;37.70;;;21.67;;
49458;SDS011;35354;51.296;16.924;2023-03-13T00:10:53;25.02;;;15.60;;
49458;SDS011;35354;51.296;16.924;2023-03-13T00:13:18;20.10;;;12.63;;
49458;SDS011;35354;51.296;16.924;2023-03-13T00:15:43;13.25;;;9.43;;
49458;SDS011;35354;51.296;16.924;2023-03-13T00:18:09;15.55;;;10.27;;
49458;SDS011;35354;51.296;16.924;2023-03-13T00:20:34;12.95;;;9.10;;
49458;SDS011;35354;51.296;16.924;2023-03-13T00:22:59;12.20;;;8.75;;
49458;SDS011;35354;51.296;16.924;2023-03-13T00:25:25;11.88;;;7.75;;
49458;SDS011;35354;51.296;16.924;2023-03-13T00:27:50;9.77;;;7.20;;
49458;SDS011;35354;51.296;16.924;2023-03-13T00:30:15;12.45;;;8.35;;
49458;SDS011;35354;51.296;16.924;2023-03-13T00:32:41;10.43;;;7.55;;
49458;SDS011;35354;51.296;16.924;2023-03-13T00:35:07;10.88;;;7.95;;
49458;SDS011;35354;51.296;16.924;2023-03-13T00:37:33;17.17;;;10.57;;
49458;SDS011;35354;51.296;16.924;2023-03-13T00:39:58;29.27;;;14.35;;
49458;SDS011;35354;51.296;16.924;2023-03-13T00:42:24;41.97;;;17.40;;
49458;SDS011;35354;51.296;16.924;2023-03-13T00:44:49;71.15;;;25.15;;
49458;SDS011;35354;51.296;16.924;2023-03-13T00:47:14;93.40;;;29.85;;
49458;SDS011;35354;51.296;16.924;2023-03-13T00:49:39;112.57;;;34.05;;
49458;SDS011;35354;51.296;16.924;2023-03-13T00:52:05;84.43;;;26.73;;
49458;SDS011;35354;51.296;16.924;2023-03-13T00:54:30;94.18;;;28.02;;
49458;SDS011;35354;51.296;16.924;2023-03-13T00:56:56;95.88;;;30.40;;
49458;SDS011;35354;51.296;16.924;2023-03-13T00:59:21;63.70;;;25.23;;
49458;SDS011;35354;51.296;16.924;2023-03-13T01:01:46;47.58;;;20.45;;
49458;SDS011;35354;51.296;16.924;2023-03-13T01:04:12;27.23;;;13.30;;
49458;SDS011;35354;51.296;16.924;2023-03-13T01:06:38;16.75;;;10.82;;
49458;SDS011;35354;51.296;16.924;2023-03-13T01:09:07;11.65;;;7.53;;
49458;SDS011;35354;51.296;16.924;2023-03-13T01:11:35;13.68;;;7.72;;
49458;SDS011;35354;51.296;16.924;2023-03-13T01:14:03;11.70;;;7.53;;
49458;SDS011;35354;51.296;16.924;2023-03-13T01:16:31;16.92;;;8.35;;
49458;SDS011;35354;51.296;16.924;2023-03-13T01:18:59;15.57;;;8.70;;
49458;SDS011;35354;51.296;16.924;2023-03-13T01:21:30;16.67;;;9.18;;
49458;SDS011;35354;51.296;16.924;2023-03-13T01:23:55;20.42;;;9.85;;
49458;SDS011;35354;51.296;16.924;2023-03-13T01:26:21;18.85;;;8.95;;
49458;SDS011;35354;51.296;16.924;2023-03-13T01:28:48;15.98;;;8.38;;
49458;SDS011;35354;51.296;16.924;2023-03-13T01:31:27;16.52;;;8.93;;
49458;SDS011;35354;51.296;16.924;2023-03-13T01:33:58;11.23;;;6.68;;
49458;SDS011;35354;51.296;16.924;2023-03-13T01:36:25;11.90;;;6.72;;
49458;SDS011;35354;51.296;16.924;2023-03-13T01:38:51;10.88;;;6.55;;
49458;SDS011;35354;51.296;16.924;2023-03-13T01:41:22;8.25;;;5.32;;
49458;SDS011;35354;51.296;16.924;2023-03-13T01:43:48;10.60;;;6.10;;
49458;SDS011;35354;51.296;16.924;2023-03-13T01:48:53;9.30;;;5.95;;
49458;SDS011;35354;51.296;16.924;2023-03-13T01:51:29;11.00;;;6.50;;
49458;SDS011;35354;51.296;16.924;2023-03-13T01:56:35;11.73;;;7.43;;
49458;SDS011;35354;51.296;16.924;2023-03-13T01:59:04;11.00;;;6.70;;
49458;SDS011;35354;51.296;16.924;2023-03-13T02:01:32;13.05;;;7.57;;
49458;SDS011;35354;51.296;16.924;2023-03-13T02:03:58;11.73;;;7.28;;
49458;SDS011;35354;51.296;16.924;2023-03-13T02:06:24;12.15;;;6.53;;
49458;SDS011;35354;51.296;16.924;2023-03-13T02:08:54;13.63;;;7.32;;
49458;SDS011;35354;51.296;16.924;2023-03-13T02:11:28;10.52;;;6.57;;
49458;SDS011;35354;51.296;16.924;2023-03-13T02:14:06;14.52;;;8.73;;
49458;SDS011;35354;51.296;16.924;2023-03-13T02:16:33;10.55;;;6.70;;
49458;SDS011;35354;51.296;16.924;2023-03-13T02:18:59;11.55;;;7.22;;
49458;SDS011;35354;51.296;16.924;2023-03-13T02:24:11;11.45;;;6.43;;
49458;SDS011;35354;51.296;16.924;2023-03-13T02:26:45;12.38;;;6.90;;
49458;SDS011;35354;51.296;16.924;2023-03-13T02:29:10;11.98;;;7.32;;
49458;SDS011;35354;51.296;16.924;2023-03-13T02:31:42;13.25;;;7.75;;
49458;SDS011;35354;51.296;16.924;2023-03-13T02:34:09;11.13;;;6.40;;
49458;SDS011;35354;51.296;16.924;2023-03-13T02:36:38;11.32;;;7.32;;
49458;SDS011;35354;51.296;16.924;2023-03-13T02:39:04;11.80;;;7.10;;
49458;SDS011;35354;51.296;16.924;2023-03-13T02:41:31;11.63;;;6.78;;
49458;SDS011;35354;51.296;16.924;2023-03-13T02:43:58;9.20;;;7.10;;
49458;SDS011;35354;51.296;16.924;2023-03-13T02:46:23;8.50;;;5.70;;
49458;SDS011;35354;51.296;16.924;2023-03-13T02:48:50;9.35;;;5.80;;
49458;SDS011;35354;51.296;16.924;2023-03-13T02:54:05;7.18;;;5.40;;
49458;SDS011;35354;51.296;16.924;2023-03-13T02:56:33;7.35;;;6.30;;
49458;SDS011;35354;51.296;16.924;2023-03-13T02:59:01;10.05;;;6.00;;
49458;SDS011;35354;51.296;16.924;2023-03-13T03:01:27;8.05;;;6.13;;
49458;SDS011;35354;51.296;16.924;2023-03-13T03:03:52;10.02;;;6.30;;
49458;SDS011;35354;51.296;16.924;2023-03-13T03:06:17;11.50;;;6.38;;
49458;SDS011;35354;51.296;16.924;2023-03-13T03:08:43;11.18;;;6.57;;
49458;SDS011;35354;51.296;16.924;2023-03-13T03:11:09;8.25;;;5.93;;
49458;SDS011;35354;51.296;16.924;2023-03-13T03:13:34;9.23;;;6.78;;
49458;SDS011;35354;51.296;16.924;2023-03-13T03:16:04;9.10;;;7.00;;
49458;SDS011;35354;51.296;16.924;2023-03-13T03:18:34;12.50;;;7.82;;
49458;SDS011;35354;51.296;16.924;2023-03-13T03:21:01;13.98;;;8.63;;
49458;SDS011;35354;51.296;16.924;2023-03-13T03:23:29;9.77;;;7.47;;
49458;SDS011;35354;51.296;16.924;2023-03-13T03:25:54;12.43;;;7.90;;
49458;SDS011;35354;51.296;16.924;2023-03-13T03:28:19;10.48;;;7.60;;
49458;SDS011;35354;51.296;16.924;2023-03-13T03:30:44;10.52;;;7.07;;
49458;SDS011;35354;51.296;16.924;2023-03-13T03:33:10;12.38;;;8.02;;
49458;SDS011;35354;51.296;16.924;2023-03-13T03:35:35;11.13;;;7.40;;
49458;SDS011;35354;51.296;16.924;2023-03-13T03:38:03;9.95;;;8.15;;
49458;SDS011;35354;51.296;16.924;2023-03-13T03:40:29;14.32;;;9.32;;
49458;SDS011;35354;51.296;16.924;2023-03-13T03:42:54;12.50;;;8.50;;
49458;SDS011;35354;51.296;16.924;2023-03-13T03:45:19;12.40;;;8.10;;
49458;SDS011;35354;51.296;16.924;2023-03-13T03:47:44;12.77;;;9.50;;
49458;SDS011;35354;51.296;16.924;2023-03-13T03:50:10;18.83;;;14.18;;
49458;SDS011;35354;51.296;16.924;2023-03-13T03:52:35;14.10;;;9.60;;
49458;SDS011;35354;51.296;16.924;2023-03-13T03:55:02;13.63;;;10.35;;
49458;SDS011;35354;51.296;16.924;2023-03-13T03:57:27;11.57;;;9.25;;
49458;SDS011;35354;51.296;16.924;2023-03-13T03:59:52;14.23;;;9.40;;
49458;SDS011;35354;51.296;16.924;2023-03-13T04:02:18;12.15;;;9.20;;
49458;SDS011;35354;51.296;16.924;2023-03-13T04:04:43;16.70;;;10.85;;
49458;SDS011;35354;51.296;16.924;2023-03-13T04:07:08;17.13;;;10.60;;
49458;SDS011;35354;51.296;16.924;2023-03-13T04:09:34;16.45;;;11.50;;
49458;SDS011;35354;51.296;16.924;2023-03-13T04:11:59;27.63;;;16.13;;
49458;SDS011;35354;51.296;16.924;2023-03-13T04:14:24;21.50;;;13.77;;
49458;SDS011;35354;51.296;16.924;2023-03-13T04:16:49;15.73;;;10.38;;
49458;SDS011;35354;51.296;16.924;2023-03-13T04:19:15;13.23;;;9.80;;
49458;SDS011;35354;51.296;16.924;2023-03-13T04:21:40;13.20;;;10.40;;
49458;SDS011;35354;51.296;16.924;2023-03-13T04:24:06;14.20;;;9.25;;
49458;SDS011;35354;51.296;16.924;2023-03-13T04:26:31;18.20;;;14.18;;
49458;SDS011;35354;51.296;16.924;2023-03-13T04:28:56;23.05;;;16.15;;
49458;SDS011;35354;51.296;16.924;2023-03-13T04:31:23;19.13;;;13.93;;
49458;SDS011;35354;51.296;16.924;2023-03-13T04:33:48;16.52;;;13.35;;
49458;SDS011;35354;51.296;16.924;2023-03-13T04:36:13;17.13;;;13.07;;
49458;SDS011;35354;51.296;16.924;2023-03-13T04:38:38;21.00;;;14.32;;
49458;SDS011;35354;51.296;16.924;2023-03-13T04:41:04;20.02;;;14.82;;
49458;SDS011;35354;51.296;16.924;2023-03-13T04:43:29;24.17;;;14.35;;
49458;SDS011;35354;51.296;16.924;2023-03-13T04:45:54;16.83;;;13.25;;
49458;SDS011;35354;51.296;16.924;2023-03-13T04:48:20;23.05;;;15.50;;
49458;SDS011;35354;51.296;16.924;2023-03-13T04:50:46;25.30;;;17.55;;
49458;SDS011;35354;51.296;16.924;2023-03-13T04:53:12;20.50;;;15.95;;
49458;SDS011;35354;51.296;16.924;2023-03-13T04:55:38;20.38;;;15.68;;
49458;SDS011;35354;51.296;16.924;2023-03-13T04:58:03;24.10;;;17.08;;
49458;SDS011;35354;51.296;16.924;2023-03-13T05:00:29;27.42;;;17.42;;
49458;SDS011;35354;51.296;16.924;2023-03-13T05:02:54;29.20;;;19.73;;
49458;SDS011;35354;51.296;16.924;2023-03-13T05:05:19;30.52;;;20.58;;
49458;SDS011;35354;51.296;16.924;2023-03-13T05:07:45;24.27;;;18.40;;
49458;SDS011;35354;51.296;16.924;2023-03-13T05:10:10;28.35;;;17.85;;
49458;SDS011;35354;51.296;16.924;2023-03-13T05:12:35;25.88;;;18.48;;
49458;SDS011;35354;51.296;16.924;2023-03-13T05:15:01;25.30;;;16.33;;
49458;SDS011;35354;51.296;16.924;2023-03-13T05:17:26;26.48;;;16.90;;
49458;SDS011;35354;51.296;16.924;2023-03-13T05:19:51;27.08;;;17.85;;
49458;SDS011;35354;51.296;16.924;2023-03-13T05:22:16;27.52;;;18.00;;
49458;SDS011;35354;51.296;16.924;2023-03-13T05:24:42;21.10;;;16.08;;
49458;SDS011;35354;51.296;16.924;2023-03-13T05:27:07;24.40;;;18.25;;
49458;SDS011;35354;51.296;16.924;2023-03-13T05:29:32;25.00;;;17.77;;
49458;SDS011;35354;51.296;16.924;2023-03-13T05:31:58;28.35;;;19.33;;
49458;SDS011;35354;51.296;16.924;2023-03-13T05:34:23;22.92;;;17.33;;
49458;SDS011;35354;51.296;16.924;2023-03-13T05:36:48;24.67;;;17.55;;
49458;SDS011;35354;51.296;16.924;2023-03-13T05:39:13;27.42;;;16.77;;
49458;SDS011;35354;51.296;16.924;2023-03-13T05:41:39;27.25;;;17.85;;
49458;SDS011;35354;51.296;16.924;2023-03-13T05:44:04;25.45;;;18.05;;
49458;SDS011;35354;51.296;16.924;2023-03-13T05:46:29;25.92;;;17.52;;
49458;SDS011;35354;51.296;16.924;2023-03-13T05:48:55;23.55;;;16.35;;
49458;SDS011;35354;51.296;16.924;2023-03-13T05:51:20;27.75;;;16.70;;
49458;SDS011;35354;51.296;16.924;2023-03-13T05:53:45;25.00;;;16.40;;
49458;SDS011;35354;51.296;16.924;2023-03-13T05:56:11;23.17;;;15.13;;
49458;SDS011;35354;51.296;16.924;2023-03-13T05:58:36;23.17;;;16.73;;
49458;SDS011;35354;51.296;16.924;2023-03-13T06:01:06;27.35;;;16.65;;
49458;SDS011;35354;51.296;16.924;2023-03-13T06:03:32;27.48;;;18.65;;
49458;SDS011;35354;51.296;16.924;2023-03-13T06:05:58;22.77;;;15.88;;
49458;SDS011;35354;51.296;16.924;2023-03-13T06:08:23;25.40;;;17.25;;
49458;SDS011;35354;51.296;16.924;2023-03-13T06:10:48;27.88;;;16.80;;
49458;SDS011;35354;51.296;16.924;2023-03-13T06:13:14;23.20;;;16.67;;
49458;SDS011;35354;51.296;16.924;2023-03-13T06:15:39;28.45;;;17.25;;
49458;SDS011;35354;51.296;16.924;2023-03-13T06:18:04;29.42;;;17.98;;
49458;SDS011;35354;51.296;16.924;2023-03-13T06:20:30;28.80;;;17.23;;
49458;SDS011;35354;51.296;16.924;2023-03-13T06:22:55;23.83;;;17.00;;
49458;SDS011;35354;51.296;16.924;2023-03-13T06:25:20;29.48;;;16.88;;
49458;SDS011;35354;51.296;16.924;2023-03-13T06:27:46;29.83;;;16.67;;
49458;SDS011;35354;51.296;16.924;2023-03-13T06:30:11;31.60;;;17.63;;
49458;SDS011;35354;51.296;16.924;2023-03-13T06:32:37;25.85;;;16.75;;
49458;SDS011;35354;51.296;16.924;2023-03-13T06:35:03;26.30;;;16.23;;
49458;SDS011;35354;51.296;16.924;2023-03-13T06:37:28;26.40;;;17.25;;
49458;SDS011;35354;51.296;16.924;2023-03-13T06:39:54;27.88;;;17.85;;
49458;SDS011;35354;51.296;16.924;2023-03-13T06:42:19;32.60;;;17.00;;
49458;SDS011;35354;51.296;16.924;2023-03-13T06:44:45;25.85;;;17.08;;
49458;SDS011;35354;51.296;16.924;2023-03-13T06:47:10;29.20;;;16.98;;
49458;SDS011;35354;51.296;16.924;2023-03-13T06:49:35;26.05;;;17.20;;
49458;SDS011;35354;51.296;16.924;2023-03-13T06:52:00;28.65;;;18.33;;
49458;SDS011;35354;51.296;16.924;2023-03-13T06:54:26;29.02;;;17.48;;
49458;SDS011;35354;51.296;16.924;2023-03-13T06:56:51;28.17;;;16.83;;
49458;SDS011;35354;51.296;16.924;2023-03-13T06:59:17;31.67;;;16.95;;
49458;SDS011;35354;51.296;16.924;2023-03-13T07:01:42;27.77;;;16.70;;
49458;SDS011;35354;51.296;16.924;2023-03-13T07:04:10;25.73;;;17.05;;
49458;SDS011;35354;51.296;16.924;2023-03-13T07:06:37;25.83;;;14.73;;
49458;SDS011;35354;51.296;16.924;2023-03-13T07:09:02;23.92;;;15.25;;
49458;SDS011;35354;51.296;16.924;2023-03-13T07:11:29;24.10;;;13.60;;
49458;SDS011;35354;51.296;16.924;2023-03-13T07:13:54;20.63;;;14.77;;
49458;SDS011;35354;51.296;16.924;2023-03-13T07:16:20;20.15;;;12.80;;
49458;SDS011;35354;51.296;16.924;2023-03-13T07:18:46;18.10;;;11.40;;
49458;SDS011;35354;51.296;16.924;2023-03-13T07:21:11;16.90;;;10.38;;
49458;SDS011;35354;51.296;16.924;2023-03-13T07:23:37;15.07;;;10.63;;
49458;SDS011;35354;51.296;16.924;2023-03-13T07:26:04;17.23;;;11.15;;
49458;SDS011;35354;51.296;16.924;2023-03-13T07:31:16;19.75;;;9.98;;
49458;SDS011;35354;51.296;16.924;2023-03-13T07:33:43;16.50;;;8.70;;
49458;SDS011;35354;51.296;16.924;2023-03-13T07:36:10;12.88;;;8.73;;
49458;SDS011;35354;51.296;16.924;2023-03-13T07:38:36;18.02;;;9.32;;
49458;SDS011;35354;51.296;16.924;2023-03-13T07:41:02;14.93;;;8.68;;
49458;SDS011;35354;51.296;16.924;2023-03-13T07:43:29;15.32;;;10.25;;
49458;SDS011;35354;51.296;16.924;2023-03-13T07:45:59;14.10;;;10.82;;
49458;SDS011;35354;51.296;16.924;2023-03-13T07:48:32;17.90;;;11.38;;
49458;SDS011;35354;51.296;16.924;2023-03-13T07:51:00;23.23;;;14.48;;
49458;SDS011;35354;51.296;16.924;2023-03-13T07:53:26;18.88;;;14.02;;
49458;SDS011;35354;51.296;16.924;2023-03-13T07:58:27;30.25;;;21.63;;
49458;SDS011;35354;51.296;16.924;2023-03-13T08:00:55;27.83;;;18.25;;
49458;SDS011;35354;51.296;16.924;2023-03-13T08:03:21;29.02;;;22.02;;
49458;SDS011;35354;51.296;16.924;2023-03-13T08:05:47;32.80;;;20.50;;
49458;SDS011;35354;51.296;16.924;2023-03-13T08:08:31;26.20;;;16.33;;
49458;SDS011;35354;51.296;16.924;2023-03-13T08:11:00;15.93;;;9.45;;
49458;SDS011;35354;51.296;16.924;2023-03-13T08:13:30;22.00;;;11.88;;
49458;SDS011;35354;51.296;16.924;2023-03-13T08:16:06;17.10;;;10.57;;
49458;SDS011;35354;51.296;16.924;2023-03-13T08:18:41;18.85;;;10.55;;
49458;SDS011;35354;51.296;16.924;2023-03-13T08:21:09;23.05;;;15.13;;
49458;SDS011;35354;51.296;16.924;2023-03-13T08:23:36;21.67;;;12.27;;
49458;SDS011;35354;51.296;16.924;2023-03-13T08:26:03;14.68;;;7.85;;
49458;SDS011;35354;51.296;16.924;2023-03-13T08:28:34;17.30;;;9.13;;
49458;SDS011;35354;51.296;16.924;2023-03-13T08:31:07;17.63;;;10.18;;
49458;SDS011;35354;51.296;16.924;2023-03-13T08:33:33;16.27;;;8.68;;
49458;SDS011;35354;51.296;16.924;2023-03-13T08:35:58;18.05;;;9.65;;
49458;SDS011;35354;51.296;16.924;2023-03-13T08:38:23;16.63;;;8.80;;
49458;SDS011;35354;51.296;16.924;2023-03-13T08:40:48;11.88;;;8.38;;
49458;SDS011;35354;51.296;16.924;2023-03-13T08:43:15;14.50;;;8.73;;
49458;SDS011;35354;51.296;16.924;2023-03-13T08:45:40;17.85;;;8.35;;
49458;SDS011;35354;51.296;16.924;2023-03-13T08:48:05;20.83;;;8.25;;
49458;SDS011;35354;51.296;16.924;2023-03-13T08:50:31;15.93;;;7.35;;
49458;SDS011;35354;51.296;16.924;2023-03-13T08:52:56;20.08;;;10.05;;
49458;SDS011;35354;51.296;16.924;2023-03-13T08:55:21;15.80;;;7.88;;
49458;SDS011;35354;51.296;16.924;2023-03-13T08:57:47;16.17;;;6.65;;
49458;SDS011;35354;51.296;16.924;2023-03-13T09:00:12;15.30;;;8.45;;
49458;SDS011;35354;51.296;16.924;2023-03-13T09:02:38;20.60;;;9.40;;
49458;SDS011;35354;51.296;16.924;2023-03-13T09:05:04;12.30;;;6.28;;
49458;SDS011;35354;51.296;16.924;2023-03-13T09:07:29;10.27;;;6.45;;
49458;SDS011;35354;51.296;16.924;2023-03-13T09:09:55;13.18;;;7.70;;
49458;SDS011;35354;51.296;16.924;2023-03-13T09:12:20;16.75;;;8.02;;
49458;SDS011;35354;51.296;16.924;2023-03-13T09:14:46;13.63;;;6.70;;
49458;SDS011;35354;51.296;16.924;2023-03-13T09:17:12;11.50;;;5.90;;
49458;SDS011;35354;51.296;16.924;2023-03-13T09:19:37;13.13;;;6.50;;
49458;SDS011;35354;51.296;16.924;2023-03-13T09:22:02;19.38;;;6.63;;
49458;SDS011;35354;51.296;16.924;2023-03-13T09:24:28;10.73;;;5.82;;
49458;SDS011;35354;51.296;16.924;2023-03-13T09:26:53;14.82;;;6.10;;
49458;SDS011;35354;51.296;16.924;2023-03-13T09:29:18;15.88;;;8.00;;
49458;SDS011;35354;51.296;16.924;2023-03-13T09:31:44;16.90;;;8.95;;
49458;SDS011;35354;51.296;16.924;2023-03-13T09:34:10;15.35;;;6.57;;
49458;SDS011;35354;51.296;16.924;2023-03-13T09:36:35;11.23;;;5.55;;
49458;SDS011;35354;51.296;16.924;2023-03-13T09:39:00;13.30;;;5.45;;
49458;SDS011;35354;51.296;16.924;2023-03-13T09:41:29;13.30;;;5.30;;
49458;SDS011;35354;51.296;16.924;2023-03-13T09:57:40;12.38;;;6.55;;
49458;SDS011;35354;51.296;16.924;2023-03-13T10:00:18;18.60;;;6.03;;
49458;SDS011;35354;51.296;16.924;2023-03-13T10:02:54;18.27;;;9.30;;
49458;SDS011;35354;51.296;16.924;2023-03-13T10:05:26;21.67;;;13.82;;
49458;SDS011;35354;51.296;16.924;2023-03-13T10:07:57;17.07;;;10.87;;
49458;SDS011;35354;51.296;16.924;2023-03-13T10:13:38;22.75;;;13.60;;
49458;SDS011;35354;51.296;16.924;2023-03-13T10:16:10;19.15;;;10.15;;
49458;SDS011;35354;51.296;16.924;2023-03-13T10:21:15;21.17;;;10.20;;
49458;SDS011;35354;51.296;16.924;2023-03-13T10:23:50;18.38;;;9.32;;
49458;SDS011;35354;51.296;16.924;2023-03-13T10:26:23;19.88;;;6.72;;
49458;SDS011;35354;51.296;16.924;2023-03-13T10:28:52;12.27;;;6.10;;
49458;SDS011;35354;51.296;16.924;2023-03-13T10:31:22;9.98;;;4.32;;
49458;SDS011;35354;51.296;16.924;2023-03-13T10:34:04;17.85;;;6.78;;
49458;SDS011;35354;51.296;16.924;2023-03-13T10:36:38;15.10;;;7.68;;
49458;SDS011;35354;51.296;16.924;2023-03-13T10:39:07;19.05;;;6.28;;
49458;SDS011;35354;51.296;16.924;2023-03-13T10:41:38;20.58;;;7.97;;
49458;SDS011;35354;51.296;16.924;2023-03-13T10:44:14;15.65;;;8.40;;
49458;SDS011;35354;51.296;16.924;2023-03-13T10:46:41;16.52;;;7.07;;
49458;SDS011;35354;51.296;16.924;2023-03-13T10:49:18;14.30;;;6.63;;
49458;SDS011;35354;51.296;16.924;2023-03-13T10:51:46;15.27;;;7.95;;
49458;SDS011;35354;51.296;16.924;2023-03-13T10:54:14;22.55;;;9.00;;
49458;SDS011;35354;51.296;16.924;2023-03-13T10:56:39;36.53;;;22.65;;
49458;SDS011;35354;51.296;16.924;2023-03-13T10:59:15;22.45;;;10.52;;
49458;SDS011;35354;51.296;16.924;2023-03-13T11:01:45;28.60;;;12.85;;
49458;SDS011;35354;51.296;16.924;2023-03-13T11:04:31;24.60;;;11.30;;
49458;SDS011;35354;51.296;16.924;2023-03-13T11:07:02;24.15;;;10.45;;
49458;SDS011;35354;51.296;16.924;2023-03-13T11:09:38;31.52;;;13.25;;
49458;SDS011;35354;51.296;16.924;2023-03-13T11:12:05;37.75;;;17.27;;
49458;SDS011;35354;51.296;16.924;2023-03-13T11:14:36;30.15;;;14.88;;
49458;SDS011;35354;51.296;16.924;2023-03-13T11:17:04;22.73;;;12.38;;
49458;SDS011;35354;51.296;16.924;2023-03-13T11:24:54;20.67;;;11.05;;
49458;SDS011;35354;51.296;16.924;2023-03-13T11:38:48;16.85;;;6.93;;
49458;SDS011;35354;51.296;16.924;2023-03-13T11:44:29;10.65;;;5.65;;
49458;SDS011;35354;51.296;16.924;2023-03-13T11:47:05;13.25;;;6.15;;
49458;SDS011;35354;51.296;16.924;2023-03-13T11:57:28;10.77;;;5.57;;
49458;SDS011;35354;51.296;16.924;2023-03-13T12:02:22;12.20;;;6.50;;
49458;SDS011;35354;51.296;16.924;2023-03-13T12:08:00;8.57;;;4.75;;
49458;SDS011;35354;51.296;16.924;2023-03-13T12:10:25;14.70;;;6.55;;
49458;SDS011;35354;51.296;16.924;2023-03-13T12:18:16;13.60;;;7.05;;
49458;SDS011;35354;51.296;16.924;2023-03-13T12:25:45;12.13;;;6.53;;
49458;SDS011;35354;51.296;16.924;2023-03-13T12:28:20;15.95;;;8.05;;
49458;SDS011;35354;51.296;16.924;2023-03-13T12:33:34;12.07;;;8.73;;
49458;SDS011;35354;51.296;16.924;2023-03-13T12:38:38;14.60;;;6.53;;
49458;SDS011;35354;51.296;16.924;2023-03-13T12:41:22;13.63;;;7.05;;
49458;SDS011;35354;51.296;16.924;2023-03-13T12:43:51;8.23;;;6.75;;
49458;SDS011;35354;51.296;16.924;2023-03-13T12:46:32;12.18;;;8.07;;
49458;SDS011;35354;51.296;16.924;2023-03-13T12:54:49;5.47;;;3.40;;
49458;SDS011;35354;51.296;16.924;2023-03-13T13:00:35;16.08;;;8.23;;
49458;SDS011;35354;51.296;16.924;2023-03-13T13:06:09;38.83;;;18.95;;
49458;SDS011;35354;51.296;16.924;2023-03-13T13:08:39;40.50;;;20.63;;
49458;SDS011;35354;51.296;16.924;2023-03-13T13:14:04;33.00;;;18.67;;
49458;SDS011;35354;51.296;16.924;2023-03-13T13:16:51;27.10;;;15.93;;
49458;SDS011;35354;51.296;16.924;2023-03-13T13:24:55;25.75;;;16.33;;
49458;SDS011;35354;51.296;16.924;2023-03-13T13:29:55;15.70;;;9.85;;
49458;SDS011;35354;51.296;16.924;2023-03-13T13:32:39;15.32;;;11.13;;
49458;SDS011;35354;51.296;16.924;2023-03-13T13:37:40;25.85;;;19.70;;
49458;SDS011;35354;51.296;16.924;2023-03-13T13:42:53;14.05;;;12.20;;
49458;SDS011;35354;51.296;16.924;2023-03-13T13:45:30;19.88;;;14.40;;
49458;SDS011;35354;51.296;16.924;2023-03-13T13:53:46;13.15;;;11.75;;
49458;SDS011;35354;51.296;16.924;2023-03-13T14:01:44;13.95;;;9.80;;
49458;SDS011;35354;51.296;16.924;2023-03-13T14:04:15;22.52;;;12.98;;
49458;SDS011;35354;51.296;16.924;2023-03-13T14:06:51;12.98;;;8.25;;
49458;SDS011;35354;51.296;16.924;2023-03-13T14:15:04;14.30;;;8.27;;
49458;SDS011;35354;51.296;16.924;2023-03-13T14:17:40;11.48;;;7.05;;
49458;SDS011;35354;51.296;16.924;2023-03-13T14:20:15;14.15;;;7.88;;
49458;SDS011;35354;51.296;16.924;2023-03-13T14:22:51;13.35;;;7.93;;
49458;SDS011;35354;51.296;16.924;2023-03-13T14:25:18;17.75;;;10.23;;
49458;SDS011;35354;51.296;16.924;2023-03-13T14:27:45;17.40;;;10.25;;
49458;SDS011;35354;51.296;16.924;2023-03-13T14:30:13;10.65;;;6.78;;
49458;SDS011;35354;51.296;16.924;2023-03-13T14:32:40;47.08;;;20.13;;
49458;SDS011;35354;51.296;16.924;2023-03-13T14:35:07;14.30;;;8.98;;
49458;SDS011;35354;51.296;16.924;2023-03-13T14:37:40;9.75;;;6.60;;
49458;SDS011;35354;51.296;16.924;2023-03-13T14:42:49;21.40;;;12.95;;
49458;SDS011;35354;51.296;16.924;2023-03-13T14:45:27;16.63;;;10.35;;
49458;SDS011;35354;51.296;16.924;2023-03-13T14:48:00;9.50;;;7.40;;
49458;SDS011;35354;51.296;16.924;2023-03-13T14:50:27;15.27;;;10.05;;
49458;SDS011;35354;51.296;16.924;2023-03-13T14:52:54;9.38;;;7.50;;
49458;SDS011;35354;51.296;16.924;2023-03-13T14:55:27;15.98;;;9.20;;
49458;SDS011;35354;51.296;16.924;2023-03-13T14:57:58;13.35;;;7.97;;
49458;SDS011;35354;51.296;16.924;2023-03-13T15:00:44;11.77;;;10.30;;
49458;SDS011;35354;51.296;16.924;2023-03-13T15:08:36;13.65;;;11.32;;
49458;SDS011;35354;51.296;16.924;2023-03-13T15:11:26;13.48;;;7.90;;
49458;SDS011;35354;51.296;16.924;2023-03-13T15:13:57;16.75;;;12.85;;
49458;SDS011;35354;51.296;16.924;2023-03-13T15:16:23;14.60;;;11.30;;
49458;SDS011;35354;51.296;16.924;2023-03-13T15:18:50;12.65;;;9.85;;
49458;SDS011;35354;51.296;16.924;2023-03-13T15:21:24;12.00;;;8.23;;
49458;SDS011;35354;51.296;16.924;2023-03-13T15:23:57;19.55;;;16.63;;
49458;SDS011;35354;51.296;16.924;2023-03-13T15:26:43;12.82;;;10.95;;
49458;SDS011;35354;51.296;16.924;2023-03-13T15:29:11;41.35;;;30.77;;
49458;SDS011;35354;51.296;16.924;2023-03-13T15:31:37;118.20;;;70.53;;
49458;SDS011;35354;51.296;16.924;2023-03-13T15:34:05;109.32;;;53.72;;
49458;SDS011;35354;51.296;16.924;2023-03-13T15:36:34;115.45;;;50.40;;
49458;SDS011;35354;51.296;16.924;2023-03-13T15:39:00;54.15;;;25.38;;
49458;SDS011;35354;51.296;16.924;2023-03-13T15:41:26;25.70;;;15.10;;
49458;SDS011;35354;51.296;16.924;2023-03-13T15:43:51;17.42;;;12.20;;
49458;SDS011;35354;51.296;16.924;2023-03-13T15:46:19;21.45;;;14.27;;
49458;SDS011;35354;51.296;16.924;2023-03-13T15:48:44;14.77;;;8.30;;
49458;SDS011;35354;51.296;16.924;2023-03-13T15:51:11;12.65;;;7.07;;
49458;SDS011;35354;51.296;16.924;2023-03-13T15:53:38;19.70;;;14.75;;
49458;SDS011;35354;51.296;16.924;2023-03-13T15:56:09;17.33;;;11.60;;
49458;SDS011;35354;51.296;16.924;2023-03-13T15:58:44;19.08;;;12.75;;
49458;SDS011;35354;51.296;16.924;2023-03-13T16:01:11;15.73;;;10.60;;
49458;SDS011;35354;51.296;16.924;2023-03-13T16:03:37;47.78;;;31.90;;
49458;SDS011;35354;51.296;16.924;2023-03-13T16:06:09;68.60;;;60.75;;
49458;SDS011;35354;51.296;16.924;2023-03-13T16:08:38;14.10;;;9.18;;
49458;SDS011;35354;51.296;16.924;2023-03-13T16:11:04;15.95;;;10.10;;
49458;SDS011;35354;51.296;16.924;2023-03-13T16:13:29;16.17;;;11.23;;
49458;SDS011;35354;51.296;16.924;2023-03-13T16:15:55;16.33;;;11.45;;
49458;SDS011;35354;51.296;16.924;2023-03-13T16:18:23;19.60;;;13.57;;
49458;SDS011;35354;51.296;16.924;2023-03-13T16:20:49;22.42;;;17.70;;
49458;SDS011;35354;51.296;16.924;2023-03-13T16:23:17;16.40;;;10.25;;
49458;SDS011;35354;51.296;16.924;2023-03-13T16:25:43;17.05;;;11.30;;
49458;SDS011;35354;51.296;16.924;2023-03-13T16:28:10;8.95;;;6.32;;
49458;SDS011;35354;51.296;16.924;2023-03-13T16:30:37;10.63;;;7.10;;
49458;SDS011;35354;51.296;16.924;2023-03-13T16:33:07;11.68;;;7.22;;
49458;SDS011;35354;51.296;16.924;2023-03-13T16:35:34;9.82;;;7.43;;
49458;SDS011;35354;51.296;16.924;2023-03-13T16:37:59;12.02;;;8.13;;